Logo AVAMET
Benvolgut visitant, si us plau, ingressa Recuperar contrasenya

Onda centre

Dades diàries. Acumulats / Últims 30 dies disponibles

Data Temperatura (°C) Humitat rel. (%) Pressió rel. (hPa) Vent (km/h) Precipitació
Mínima Mitjana Màxima Amplitud
tèrmica
Mínima Mitjana Màxima Mínima Mitjana Màxima Predom. Mitjana Ràfega
màxima
Total
(mm)
Índex-n
Mínima Mitjana Màxima Mínima Mitjana Màxima n
0 a 1
P0 max
mm 5'
Dades mensuals acumulades fins l'últim dia disponible
05/2019 9,6 13,1 17,4 17,4 17,9 22,5 29,2 19,6 26 62 93 1.000 1.014 1.025   3,4 38,9 10,1
Dades anuals acumulades fins l'últim dia disponible
2019 3,1 9,4 17,4 13,8 11,6 19,1 29,2 26,1 15 56 100 990 1.019 1.036   3,7 50,0 148,7
Últims 30 dies disponibles
19-05-2019 9,8     15,9     23,0 13,2 31 59 87 1.008 1.010 1.013 SSE 3,3 18,5 3,3
18-05-2019 11,9     15,5     19,6 7,7 30 57 84 1.007 1.009 1.011 ESE 3,2 25,9 4,4
17-05-2019 14,4     17,8     21,6 7,2 35 59 83 1.000 1.004 1.006 ESE 5,0 31,4 0,0
16-05-2019 14,5     17,1     20,9 6,4 62 74 86 1.005 1.011 1.016 ESE 3,2 31,4 0,0
15-05-2019 14,4     18,0     23,3 8,9 45 62 79 1.010 1.012 1.016 SE 3,8 22,2 0,0
14-05-2019 12,1     18,3     24,8 12,7 31 53 75 1.014 1.018 1.022 ESE 4,3 27,8 0,0
13-05-2019 13,1     18,2     23,4 10,3 33 60 86 1.018 1.020 1.022 SE 3,5 24,1 0,0
12-05-2019 14,5     18,8     23,4 8,9 26 55 84 1.018 1.022 1.025 SE 3,4 20,4 0,0
11-05-2019 17,4     20,8     24,9 7,5 45 63 81 1.014 1.018 1.023 SE 3,8 20,4 0,0
10-05-2019 17,3     22,6     29,2 11,9 37 55 72 1.010 1.012 1.015 SE 3,4 24,1 0,0
09-05-2019 15,8     20,6     26,5 10,7 28 48 67 1.010 1.011 1.013 SSE 3,2 20,4 0,0
08-05-2019 15,0     19,8     26,6 11,6 36 65 93 1.008 1.011 1.015 SSO 2,4 22,2 0,0
07-05-2019 10,9     16,1     21,1 10,2 61 76 91 1.014 1.017 1.019 SE 2,7 22,2 0,0
06-05-2019 9,6     14,4     19,2 9,6 41 60 78 1.017 1.018 1.020 SE 4,5 38,9 0,0
05-05-2019 12,3     15,8     19,8 7,5 28 51 73 1.012 1.015 1.017 NE 4,9 24,1 0,0
04-05-2019 9,6     14,9     20,3 10,7 39 66 92 1.010 1.012 1.013 SSE 4,0 31,4 0,0
03-05-2019 10,9     13,4     17,9 7,0 55 74 92 1.010 1.012 1.015 SE 1,6 22,2 2,4
02-05-2019 13,5     16,6     21,2 7,7 45 67 88 1.014 1.015 1.017 SE 2,3 22,2 0,0
01-05-2019 12,1     15,7     21,5 9,4 47 69 91 1.014 1.015 1.017 SE 2,4 27,8 0,0
30-04-2019 10,9     15,7     20,7 9,8 52 71 90 1.016 1.017 1.019 SE 3,3 27,8 0,0
29-04-2019 10,5     15,1     20,4 9,9 50 69 87 1.017 1.019 1.021 SE 3,7 24,1 0,0
28-04-2019 12,9     16,4     20,1 7,2 47 59 71 1.020 1.023 1.025 SSE 4,4 31,4 0,0
27-04-2019 11,1     16,6     21,7 10,6 36 53 69 1.023 1.025 1.027 SE 4,3 27,8 0,0
26-04-2019 10,5     16,3     22,3 11,8 32 42 55 1.016 1.021 1.025 SSE 3,8 35,2 0,0
25-04-2019 14,7     17,4     21,4 6,7 33 50 68 1.007 1.011 1.016 S 4,3 27,8 2,9
24-04-2019 10,1     14,8     19,8 9,7 38 48 67 1.002 1.007 1.010 S 2,9 18,5 0,0
23-04-2019 10,7     15,0     21,2 10,5 41 68 91 997 998 1.001 S 1,9 27,8 0,9
22-04-2019 12,0     14,2     15,7 3,7 54 75 91 999 1.001 1.007 S 0,7 20,4 4,3
21-04-2019 12,0     14,1     15,4 3,4 53 62 83 1.007 1.011 1.017 NE 6,2 34,2 0,0
20-04-2019 12,8     15,1     17,7 4,9 43 56 78 1.017 1.018 1.021 NNE 8,6 39,2 1,2
Últims 13 mesos disponibles
04/2019 7,1 11,1 14,7 14,9 14,9 19,5 27,6 20,5 30 60 93 998 1.013 1.025 S 3,8 50,0 112,2
03/2019 6,6 9,8 15,5 14,4 11,6 20,2 27,2 20,6 29 49 92 1.010 1.023 1.030 SSE 3,7 30,5 25,8
02/2019 3,9 7,6 12,7 12,0 12,9 18,0 25,7 21,8 25 58 81 993 1.025 1.034 SSE 3,7 40,7 0,0
01/2019 3,1 6,7 9,8 11,5 12,6 16,4 20,7 17,6 33 52 73 1.002 1.019 1.031 45,0 0,6
12/2018 6,1 9,4 14,7 13,5 13,5 18,0 24,5 18,4 42 65 86 1.009 1.025 1.030 SSE 0,1 22,0 14,3
11/2018 7,6 11,0 15,1 14,6 13,8 18,3 23,9 16,3 40 72 100 1.002 1.015 1.024 32,0 111,5
10/2018 7,9 14,2 17,5 18,3 14,0 22,4 27,7 19,8 31 68 97 1.000 1.014 1.026 37,0 273,0
09/2018 16,8 19,9 23,0 24,1 22,9 28,3 31,5 14,7 39 70 87 1.012 1.019 1.029 28,0 37,6
08/2018 19,2 22,1 26,1 26,6 27,0 30,9 35,6 16,4 39 59 76 1.012 1.016 1.021 32,0 17,0
07/2018 19,9 21,4 23,0 26,3 25,3 31,1 35,7 15,8 38 61 72 1.009 1.014 1.020 33,0 2,7
06/2018 14,1 18,5 21,3 23,2 21,7 27,9 32,2 18,1 40 59 77 1.009 1.015 1.020 38,0 38,9
05/2018 8,9 14,1 17,3 18,7 19,2 23,4 26,1 17,2 39 61 78 1.010 1.015 1.018 41,0 89,4
04/2018 7,9 11,8 15,4 16,4 13,1 21,0 25,6 17,7 37 56 85 994 1.014 1.025 39,0 20,5
Tots els anys disponibles
2018 1,4 14,0 26,1 18,3 8,2 22,7 35,7 34,3 26 61 100 993 1.016 1.035 0,0 41,0 752,5
2017 0,0 13,7 23,7 18,2 7,9 22,8 36,7 36,7 25 59 93 995 1.019 1.036 0,0 44,0 433,7
2016 2,8 13,9 26,0 18,2 10,3 22,6 35,8 33,0 41 57 69 1.014 1.017 1.027 76,0 557,3
2015 4,0 13,4 14,4 17,5 20,4 21,6 32,3 28,3 47 53 57 1.016 1.021 1.030 43,0 723,6
2014 350,9
2013 417,4
2012 327,8
2011 703,6
Temperatura (°C)
Humitat relativa (%)
Velocitat del vent i ràfega màxima (km/h)
Direcció del vent (°)
Pressió (hPa)
Precipitació (mm)
Nota sobre les dades: s'avisa a l'usuari de la provisionalitat i no oficialitat d'aquestes dades
Logo AVAMET blanc
Web allotjada a Sollutia
Llicència de Creative CommonsLa web d'AVAMET i els seus continguts estan subjectes a una llicència de
Reconeixement - No Comercial - Compartir igual
Properes estacions: Altea - Club Nàutic d'Altea (Soci), Ontinyent - El Pilar (Soci), Ares del Maestrat (Ajuntament Soci), Catadau - L'Altet (Inforatge)     - - - - -      Últimes estacions: Jacarilla - centro (MeteOrihuela), Elx - Maitino/Vallverda/Velarde/Matola/Ferriol (Soci TiempoElche.com), Orihuela - Playa Flamenca (MeteOrihuela), Puçol - Ciutat Jardí (Soci), Alzira - La Casella (Soci) - - -